Time;durP1;ratioP1;P1;durP2;ratioP2;P2;SDS_P1;SDS_P2;PMS_P1;PMS_P2;Temp;Humidity;BMP_temperature;BMP_pressure;BME280_temperature;BME280_humidity;BME280_pressure;Samples;Min_cycle;Max_cycle;Signal;HPM_P1;HPM_P2
2024/02/13 00:00:20;;;;;;;17.93;8.77;;;;;;;12.11;100.00;99795.75;31233530;28;20081;-75
2024/02/13 00:15:22;;;;;;;20.83;9.37;;;;;;;12.64;100.00;99763.34;31235957;28;20057;-75
2024/02/13 00:30:24;;;;;;;19.03;8.73;;;;;;;12.10;100.00;99769.75;31256966;28;20099;-80
2024/02/13 00:45:27;;;;;;;18.93;8.87;;;;;;;12.15;100.00;99768.44;31273707;28;20414;-80
2024/02/13 01:00:29;;;;;;;19.53;9.57;;;;;;;12.13;100.00;99762.66;31281421;28;20110;-81
2024/02/13 01:15:32;;;;;;;16.27;8.50;;;;;;;12.21;100.00;99753.84;31280156;28;20114;-81
2024/02/13 01:30:38;;;;;;;18.50;9.70;;;;;;;12.32;100.00;99739.13;31275227;28;20132;-80
2024/02/13 01:45:40;;;;;;;18.27;8.80;;;;;;;12.12;100.00;99736.66;31266241;28;20095;-82
2024/02/13 02:00:43;;;;;;;21.13;10.93;;;;;;;12.13;100.00;99724.56;31271439;28;20041;-80
2024/02/13 02:15:45;;;;;;;22.27;11.40;;;;;;;11.84;100.00;99720.03;31260514;28;20049;-81
2024/02/13 02:30:47;;;;;;;24.20;10.97;;;;;;;11.68;100.00;99741.84;31266976;28;20048;-80
2024/02/13 02:45:49;;;;;;;18.30;9.47;;;;;;;11.82;100.00;99740.69;31278443;28;20056;-80
2024/02/13 03:00:52;;;;;;;18.83;9.90;;;;;;;11.86;100.00;99733.94;31261851;28;20050;-81
2024/02/13 03:15:54;;;;;;;17.43;8.90;;;;;;;11.85;100.00;99751.47;31263449;28;20050;-80
2024/02/13 03:30:57;;;;;;;23.73;10.43;;;;;;;11.80;100.00;99749.31;31271047;28;20045;-80
2024/02/13 03:45:59;;;;;;;19.67;9.80;;;;;;;11.70;100.00;99755.03;31269894;28;20049;-81
2024/02/13 04:01:01;;;;;;;16.30;9.57;;;;;;;11.61;100.00;99742.06;31259492;28;20065;-81
2024/02/13 04:16:06;;;;;;;28.07;11.00;;;;;;;11.68;100.00;99752.72;31288547;28;21588;-75
2024/02/13 04:31:09;;;;;;;21.20;9.27;;;;;;;11.52;100.00;99744.69;31258948;28;20045;-77
2024/02/13 04:46:11;;;;;;;16.33;8.53;;;;;;;11.51;100.00;99754.78;31244127;28;20155;-75
2024/02/13 05:01:14;;;;;;;20.33;9.13;;;;;;;11.60;100.00;99784.03;31232676;28;20598;-77
2024/02/13 05:16:20;;;;;;;22.33;9.90;;;;;;;11.64;100.00;99798.28;31239979;28;20049;-75
2024/02/13 05:31:23;;;;;;;21.97;9.87;;;;;;;11.58;100.00;99814.38;31257571;28;20084;-76
2024/02/13 05:46:25;;;;;;;19.80;10.07;;;;;;;11.43;100.00;99804.34;31251685;28;20096;-77
2024/02/13 06:01:27;;;;;;;23.13;9.57;;;;;;;11.49;100.00;99789.03;31251511;28;20081;-76
2024/02/13 06:16:30;;;;;;;22.90;10.30;;;;;;;11.74;100.00;99783.63;31257298;28;20049;-77
2024/02/13 06:31:32;;;;;;;19.87;9.17;;;;;;;12.14;100.00;99788.69;31243346;28;20080;-76
2024/02/13 06:46:34;;;;;;;19.80;11.47;;;;;;;12.26;100.00;99801.53;31241102;28;20060;-77
2024/02/13 07:01:36;;;;;;;20.23;10.30;;;;;;;12.62;100.00;99807.34;31259472;28;20049;-75
2024/02/13 07:16:38;;;;;;;19.93;9.93;;;;;;;12.93;100.00;99810.22;31253804;28;20068;-81
2024/02/13 07:31:43;;;;;;;25.53;11.67;;;;;;;13.06;100.00;99807.44;31254748;28;20049;-80
2024/02/13 07:46:45;;;;;;;24.03;11.27;;;;;;;13.22;100.00;99820.94;31259764;28;20100;-77
2024/02/13 08:01:50;;;;;;;29.67;11.47;;;;;;;13.42;100.00;99814.41;31271907;28;20049;-82
2024/02/13 08:16:52;;;;;;;24.47;11.00;;;;;;;13.66;100.00;99810.00;31279120;28;20050;-79
2024/02/13 08:31:56;;;;;;;20.60;11.83;;;;;;;13.48;100.00;99820.78;31272144;28;20044;-80
2024/02/13 08:46:59;;;;;;;21.23;11.80;;;;;;;13.51;100.00;99806.28;31253850;28;20049;-84
2024/02/13 09:02:00;;;;;;;26.40;14.60;;;;;;;13.49;100.00;99835.94;31285732;28;20048;-84
2024/02/13 09:17:03;;;;;;;32.67;17.10;;;;;;;13.76;100.00;99824.44;31281233;28;20503;-84
2024/02/13 09:32:05;;;;;;;52.70;23.33;;;;;;;13.42;100.00;99789.88;31286129;28;20499;-81
2024/02/13 09:47:09;;;;;;;42.07;20.47;;;;;;;13.50;100.00;99726.44;31304579;28;20053;-84
2024/02/13 10:02:13;;;;;;;65.13;26.10;;;;;;;14.11;100.00;99685.88;31305941;28;20054;-83
2024/02/13 10:17:16;;;;;;;44.57;20.77;;;;;;;13.94;100.00;99661.56;31296250;28;20063;-82
2024/02/13 10:32:19;;;;;;;39.40;16.33;;;;;;;14.04;100.00;99637.03;31228525;28;20060;-83
2024/02/13 10:47:28;;;;;;;36.73;14.40;;;;;;;14.61;100.00;99644.38;31304825;28;20141;-84
2024/02/13 11:02:33;;;;;;;38.03;15.37;;;;;;;14.98;100.00;99638.84;31292255;28;20415;-83
2024/02/13 11:17:55;;;;;;;38.03;17.23;;;;;;;15.22;100.00;99639.69;31342956;28;20514;-83
2024/02/13 11:33:01;;;;;;;29.77;13.87;;;;;;;15.32;100.00;99648.66;31318555;28;20552;-86
2024/02/13 11:48:03;;;;;;;25.73;13.23;;;;;;;15.39;100.00;99648.28;31287062;28;20197;-81
2024/02/13 12:03:06;;;;;;;23.57;12.40;;;;;;;15.47;100.00;99676.84;31278011;28;20049;-79
2024/02/13 12:18:11;;;;;;;26.10;13.67;;;;;;;15.62;100.00;99715.25;31264473;28;20079;-81
2024/02/13 12:33:23;;;;;;;22.00;11.40;;;;;;;15.62;100.00;99704.31;31283332;28;20056;-80
2024/02/13 12:48:27;;;;;;;19.50;10.93;;;;;;;15.72;100.00;99703.06;31254240;28;20148;-78
2024/02/13 13:03:38;;;;;;;19.60;10.77;;;;;;;15.87;100.00;99692.94;31246758;28;20045;-79
2024/02/13 13:18:42;;;;;;;19.97;10.70;;;;;;;15.82;100.00;99668.97;31243317;28;20132;-78
2024/02/13 13:33:47;;;;;;;20.87;10.97;;;;;;;15.85;100.00;99672.75;31256497;28;20084;-78
2024/02/13 13:48:49;;;;;;;16.87;9.57;;;;;;;15.97;100.00;99678.00;31266768;28;20088;-78
2024/02/13 14:03:54;;;;;;;21.23;10.87;;;;;;;15.97;100.00;99699.91;31263039;28;20103;-80
2024/02/13 14:18:58;;;;;;;24.73;11.27;;;;;;;15.89;100.00;99709.66;31273702;28;20478;-79
2024/02/13 14:34:00;;;;;;;21.33;10.80;;;;;;;15.73;100.00;99715.53;31270873;28;20042;-79
2024/02/13 14:49:03;;;;;;;18.37;9.13;;;;;;;15.65;100.00;99703.38;31226837;28;20077;-79
2024/02/13 15:04:06;;;;;;;15.70;9.63;;;;;;;15.44;100.00;99682.47;31301198;28;20084;-79
2024/02/13 15:19:09;;;;;;;22.27;11.90;;;;;;;15.11;100.00;99694.13;31277556;28;20061;-78
2024/02/13 15:34:12;;;;;;;25.87;12.73;;;;;;;15.07;100.00;99698.22;31265791;28;20505;-79
2024/02/13 15:49:16;;;;;;;29.67;14.30;;;;;;;14.92;100.00;99687.91;31285677;28;20052;-81
2024/02/13 16:04:22;;;;;;;23.03;13.47;;;;;;;15.06;100.00;99696.72;31303586;28;20054;-82
2024/02/13 16:19:24;;;;;;;23.63;12.03;;;;;;;15.05;100.00;99695.19;31318164;28;20060;-86
2024/02/13 16:34:30;;;;;;;26.00;12.53;;;;;;;15.19;100.00;99706.22;31282959;28;20140;-77
2024/02/13 16:49:33;;;;;;;26.33;13.37;;;;;;;15.00;100.00;99700.06;31279416;28;20053;-81
2024/02/13 17:04:36;;;;;;;30.10;15.30;;;;;;;14.89;100.00;99693.53;31288779;28;20058;-78
2024/02/13 17:19:38;;;;;;;25.97;13.60;;;;;;;14.77;100.00;99708.13;31268199;28;20467;-79
2024/02/13 17:34:40;;;;;;;22.60;12.57;;;;;;;14.60;100.00;99719.34;31274655;28;20045;-79
2024/02/13 17:49:43;;;;;;;27.10;14.07;;;;;;;14.41;100.00;99726.00;31300378;28;20053;-80
2024/02/13 18:04:45;;;;;;;28.07;14.53;;;;;;;14.24;100.00;99720.03;31316797;28;20057;-77
2024/02/13 18:19:47;;;;;;;28.27;13.93;;;;;;;14.08;100.00;99725.75;31286639;28;20515;-79
2024/02/13 18:34:50;;;;;;;33.20;14.87;;;;;;;14.12;100.00;99733.81;31266457;28;20053;-70
2024/02/13 18:49:54;;;;;;;30.10;13.67;;;;;;;14.28;100.00;99733.53;31257912;28;20098;-82
2024/02/13 19:04:57;;;;;;;29.80;14.50;;;;;;;13.95;100.00;99720.41;31275040;28;20338;-74
2024/02/13 19:19:59;;;;;;;25.77;11.43;;;;;;;14.07;100.00;99713.31;31235692;28;20056;-77
2024/02/13 19:35:04;;;;;;;20.23;11.47;;;;;;;14.11;100.00;99719.41;31248161;28;20164;-78
2024/02/13 19:50:07;;;;;;;24.00;11.23;;;;;;;14.34;100.00;99726.28;31268183;28;20045;-78
2024/02/13 20:05:09;;;;;;;20.13;10.47;;;;;;;14.20;100.00;99705.00;31258633;28;20462;-81
2024/02/13 20:20:14;;;;;;;20.93;10.97;;;;;;;14.23;100.00;99699.41;31267968;28;20048;-82
2024/02/13 20:35:17;;;;;;;26.07;12.13;;;;;;;14.08;100.00;99714.84;31267759;28;20552;-83
2024/02/13 20:50:19;;;;;;;22.80;11.73;;;;;;;14.12;100.00;99720.91;31283225;28;20056;-82
2024/02/13 21:05:24;;;;;;;24.07;12.73;;;;;;;14.16;100.00;99735.19;31264322;28;20053;-75
2024/02/13 21:20:41;;;;;;;21.83;10.73;;;;;;;14.12;100.00;99733.81;31246302;28;20049;-76
2024/02/13 21:35:44;;;;;;;22.63;12.20;;;;;;;14.00;100.00;99749.84;31225482;28;20128;-74
2024/02/13 21:50:46;;;;;;;21.60;11.73;;;;;;;13.94;100.00;99754.34;31269612;28;20099;-79
2024/02/13 22:05:49;;;;;;;28.23;12.43;;;;;;;13.94;100.00;99762.53;31339925;28;20136;-82
2024/02/13 22:20:51;;;;;;;29.60;14.27;;;;;;;13.75;100.00;99769.13;31293333;28;20060;-81
2024/02/13 22:35:54;;;;;;;29.20;14.57;;;;;;;13.29;100.00;99770.84;31276924;28;20510;-79
2024/02/13 22:50:56;;;;;;;24.37;13.33;;;;;;;13.36;100.00;99769.81;31286042;28;20415;-79
2024/02/13 23:05:58;;;;;;;26.50;13.17;;;;;;;13.41;100.00;99783.66;31284241;28;20107;-79
2024/02/13 23:21:02;;;;;;;27.87;13.47;;;;;;;13.37;100.00;99790.44;31317542;28;20054;-78
2024/02/13 23:36:05;;;;;;;28.63;13.67;;;;;;;13.43;100.00;99794.13;31351925;28;20045;-78
2024/02/13 23:51:08;;;;;;;31.53;14.90;;;;;;;13.16;100.00;99805.59;31324960;28;20480;-79
